EGOP

Pembrey Sands Airport

Pembrey Sands, United Kingdom
METAR EGOP 160650Z AUTO 21015KT 9000 // FEW026/// BKN070/// 09/06 Q1003
Observed Flight Rules
Dec-16 @ 06:50 UTC (an hour ago) Visual Flight Rules
Wind Visibility Clouds
210° at 15 knots 8,996 meters
  • Few at 2,600' AGL
  • Broken at 7,000' AGL
Temperatures Readings
Current 9°C / 48°F
Dewpoint 6°C / 43°F
Humidity 82%
Altimeter 29.62" Hg
Pressure 1003 hPa
Elevation 6
METAR EGOP 160650Z AUTO 21015KT 9000 // FEW026/// BKN070/// 09/06 Q1003
Observed Flight Rules
Dec-16 @ 06:50 UTC
(an hour ago)
VFR
Wind Visibility
210° at 15 knots 8,996 meters
Clouds
  • Few at 2,600' AGL
  • Broken at 7,000' AGL
Temperature Dewpoint
9°C / 48°F 6°C / 43°F
Humidity Altimeter Pressure
82% 29.62" Hg 1003 hPa